sensor_id;sensor_type;location;lat;lon;timestamp;pressure;altitude;pressure_sealevel;temperature;humidity
44144;BME280;71749;51.920;4.492;2024-01-15T00:02:22;66575.00;;;6.40;92.35
44144;BME280;71749;51.920;4.492;2024-01-15T00:05:08;66570.72;;;6.38;92.07
44144;BME280;71749;51.920;4.492;2024-01-15T00:07:53;66573.69;;;6.43;92.37
44144;BME280;71749;51.920;4.492;2024-01-15T00:10:39;66566.84;;;6.35;91.78
44144;BME280;71749;51.920;4.492;2024-01-15T00:13:25;66567.41;;;6.35;91.81
44144;BME280;71749;51.920;4.492;2024-01-15T00:16:11;66569.25;;;6.39;91.34
44144;BME280;71749;51.920;4.492;2024-01-15T00:19:00;66567.56;;;6.38;90.87
44144;BME280;71749;51.920;4.492;2024-01-15T00:21:45;66571.28;;;6.39;91.00
44144;BME280;71749;51.920;4.492;2024-01-15T00:24:31;66585.75;;;6.52;90.16
44144;BME280;71749;51.920;4.492;2024-01-15T00:27:16;66568.13;;;6.38;90.56
44144;BME280;71749;51.920;4.492;2024-01-15T00:30:02;66575.34;;;6.45;89.57
44144;BME280;71749;51.920;4.492;2024-01-15T00:32:47;66585.38;;;6.54;89.77
44144;BME280;71749;51.920;4.492;2024-01-15T00:35:33;66567.97;;;6.36;89.77
44144;BME280;71749;51.920;4.492;2024-01-15T00:38:19;66585.38;;;6.54;88.68
44144;BME280;71749;51.920;4.492;2024-01-15T00:41:05;66591.84;;;6.57;88.56
44144;BME280;71749;51.920;4.492;2024-01-15T00:43:51;66595.38;;;6.63;87.68
44144;BME280;71749;51.920;4.492;2024-01-15T00:46:46;66592.59;;;6.61;87.69
44144;BME280;71749;51.920;4.492;2024-01-15T00:49:31;66595.75;;;6.61;87.30
44144;BME280;71749;51.920;4.492;2024-01-15T00:52:17;66586.66;;;6.50;86.25
44144;BME280;71749;51.920;4.492;2024-01-15T00:55:02;66567.56;;;6.38;85.85
44144;BME280;71749;51.920;4.492;2024-01-15T00:57:48;66570.91;;;6.41;85.94
44144;BME280;71749;51.920;4.492;2024-01-15T01:00:34;66565.38;;;6.36;85.80
44144;BME280;71749;51.920;4.492;2024-01-15T01:03:19;66568.69;;;6.39;86.35
44144;BME280;71749;51.920;4.492;2024-01-15T01:06:05;66561.47;;;6.32;85.92
44144;BME280;71749;51.920;4.492;2024-01-15T01:08:50;66574.25;;;6.44;85.66
44144;BME280;71749;51.920;4.492;2024-01-15T01:11:35;66580.19;;;6.47;86.02
44144;BME280;71749;51.920;4.492;2024-01-15T01:14:22;66558.69;;;6.30;85.23
44144;BME280;71749;51.920;4.492;2024-01-15T01:17:07;66562.03;;;6.33;85.82
44144;BME280;71749;51.920;4.492;2024-01-15T01:19:52;66553.13;;;6.25;84.64
44144;BME280;71749;51.920;4.492;2024-01-15T01:22:38;66531.66;;;6.00;84.10
44144;BME280;71749;51.920;4.492;2024-01-15T01:25:24;66537.56;;;6.10;83.93
44144;BME280;71749;51.920;4.492;2024-01-15T01:28:09;66537.56;;;6.10;85.03
44144;BME280;71749;51.920;4.492;2024-01-15T01:30:55;66550.19;;;6.20;85.02
44144;BME280;71749;51.920;4.492;2024-01-15T01:33:40;66564.25;;;6.35;85.04
44144;BME280;71749;51.920;4.492;2024-01-15T01:36:25;66561.28;;;6.30;85.67
44144;BME280;71749;51.920;4.492;2024-01-15T01:39:11;66571.13;;;6.36;86.01
44144;BME280;71749;51.920;4.492;2024-01-15T01:41:57;66555.91;;;6.27;85.18
44144;BME280;71749;51.920;4.492;2024-01-15T01:44:43;66535.34;;;6.08;86.42
44144;BME280;71749;51.920;4.492;2024-01-15T01:47:28;66539.63;;;6.10;87.47
44144;BME280;71749;51.920;4.492;2024-01-15T01:50:14;66535.75;;;6.06;87.72
44144;BME280;71749;51.920;4.492;2024-01-15T01:53:00;66540.19;;;6.10;87.86
44144;BME280;71749;51.920;4.492;2024-01-15T01:55:47;66528.50;;;6.00;87.66
44144;BME280;71749;51.920;4.492;2024-01-15T01:58:33;66530.19;;;6.01;86.74
44144;BME280;71749;51.920;4.492;2024-01-15T02:01:19;66543.53;;;6.13;87.01
44144;BME280;71749;51.920;4.492;2024-01-15T02:04:05;66543.88;;;6.19;87.33
44144;BME280;71749;51.920;4.492;2024-01-15T02:06:51;66541.28;;;6.11;87.31
44144;BME280;71749;51.920;4.492;2024-01-15T02:09:36;66544.25;;;6.17;87.70
44144;BME280;71749;51.920;4.492;2024-01-15T02:12:22;66546.47;;;6.19;88.47
44144;BME280;71749;51.920;4.492;2024-01-15T02:15:08;66543.53;;;6.13;88.93
44144;BME280;71749;51.920;4.492;2024-01-15T02:18:05;66540.38;;;6.13;90.07
44144;BME280;71749;51.920;4.492;2024-01-15T02:20:53;66543.13;;;6.15;89.84
44144;BME280;71749;51.920;4.492;2024-01-15T02:23:38;66547.03;;;6.19;90.50
44144;BME280;71749;51.920;4.492;2024-01-15T02:26:24;66541.84;;;6.12;90.80
44144;BME280;71749;51.920;4.492;2024-01-15T02:29:10;66547.22;;;6.14;91.14
44144;BME280;71749;51.920;4.492;2024-01-15T02:31:56;66541.09;;;6.09;90.80
44144;BME280;71749;51.920;4.492;2024-01-15T02:34:41;66533.13;;;6.06;90.90
44144;BME280;71749;51.920;4.492;2024-01-15T02:37:26;66536.13;;;6.04;90.47
44144;BME280;71749;51.920;4.492;2024-01-15T02:40:11;66489.06;;;5.64;90.09
44144;BME280;71749;51.920;4.492;2024-01-15T02:42:57;66529.78;;;6.03;89.42
44144;BME280;71749;51.920;4.492;2024-01-15T02:45:42;66532.59;;;6.06;89.30
44144;BME280;71749;51.920;4.492;2024-01-15T02:48:28;66518.50;;;5.91;88.01
44144;BME280;71749;51.920;4.492;2024-01-15T02:51:13;66512.03;;;5.87;87.83
44144;BME280;71749;51.920;4.492;2024-01-15T02:53:58;66484.22;;;5.62;88.27
44144;BME280;71749;51.920;4.492;2024-01-15T02:56:44;66499.22;;;5.75;88.14
44144;BME280;71749;51.920;4.492;2024-01-15T02:59:29;66493.88;;;5.66;87.69
44144;BME280;71749;51.920;4.492;2024-01-15T03:02:14;66518.69;;;5.93;88.57
44144;BME280;71749;51.920;4.492;2024-01-15T03:05:00;66517.03;;;5.92;87.60
44144;BME280;71749;51.920;4.492;2024-01-15T03:07:45;66492.78;;;5.65;88.14
44144;BME280;71749;51.920;4.492;2024-01-15T03:10:30;66484.78;;;5.62;90.94
44144;BME280;71749;51.920;4.492;2024-01-15T03:13:16;66485.16;;;5.60;91.09
44144;BME280;71749;51.920;4.492;2024-01-15T03:16:01;66487.94;;;5.63;91.55
44144;BME280;71749;51.920;4.492;2024-01-15T03:18:47;66493.88;;;5.66;91.96
44144;BME280;71749;51.920;4.492;2024-01-15T03:21:32;66478.50;;;5.54;92.72
44144;BME280;71749;51.920;4.492;2024-01-15T03:24:18;66469.63;;;5.46;93.45
44144;BME280;71749;51.920;4.492;2024-01-15T03:27:03;66472.00;;;5.51;94.16
44144;BME280;71749;51.920;4.492;2024-01-15T03:29:49;66486.81;;;5.62;95.51
44144;BME280;71749;51.920;4.492;2024-01-15T03:32:34;66456.47;;;5.37;96.62
44144;BME280;71749;51.920;4.492;2024-01-15T03:35:19;66470.91;;;5.50;97.35
44144;BME280;71749;51.920;4.492;2024-01-15T03:38:05;66476.84;;;5.53;97.08
44144;BME280;71749;51.920;4.492;2024-01-15T03:40:51;66478.13;;;5.56;96.75
44144;BME280;71749;51.920;4.492;2024-01-15T03:43:36;66486.25;;;5.68;97.18
44144;BME280;71749;51.920;4.492;2024-01-15T03:46:21;66485.16;;;5.60;97.31
44144;BME280;71749;51.920;4.492;2024-01-15T03:49:07;66489.63;;;5.64;97.81
44144;BME280;71749;51.920;4.492;2024-01-15T03:51:52;66484.22;;;5.62;98.01
44144;BME280;71749;51.920;4.492;2024-01-15T03:54:37;66487.19;;;5.67;98.04
44144;BME280;71749;51.920;4.492;2024-01-15T03:57:23;66474.06;;;5.50;98.33
44144;BME280;71749;51.920;4.492;2024-01-15T04:00:09;66480.16;;;5.56;98.96
44144;BME280;71749;51.920;4.492;2024-01-15T04:02:54;66462.03;;;5.42;99.54
44144;BME280;71749;51.920;4.492;2024-01-15T04:05:40;66454.25;;;5.34;98.68
44144;BME280;71749;51.920;4.492;2024-01-15T04:08:25;66463.50;;;5.41;99.24
44144;BME280;71749;51.920;4.492;2024-01-15T04:11:10;66473.69;;;5.52;98.93
44144;BME280;71749;51.920;4.492;2024-01-15T04:13:56;66474.63;;;5.51;98.12
44144;BME280;71749;51.920;4.492;2024-01-15T04:16:41;66478.31;;;5.52;97.69
44144;BME280;71749;51.920;4.492;2024-01-15T04:19:26;66479.06;;;5.55;97.91
44144;BME280;71749;51.920;4.492;2024-01-15T04:22:12;66491.63;;;5.71;98.18
44144;BME280;71749;51.920;4.492;2024-01-15T04:24:57;66488.69;;;5.66;98.90
44144;BME280;71749;51.920;4.492;2024-01-15T04:27:42;66487.94;;;5.63;100.00
44144;BME280;71749;51.920;4.492;2024-01-15T04:30:28;66463.88;;;5.39;100.00
44144;BME280;71749;51.920;4.492;2024-01-15T04:33:13;66440.38;;;5.22;100.00
44144;BME280;71749;51.920;4.492;2024-01-15T04:36:02;66430.19;;;5.10;100.00
44144;BME280;71749;51.920;4.492;2024-01-15T04:38:48;66436.69;;;5.14;100.00
44144;BME280;71749;51.920;4.492;2024-01-15T04:41:34;66437.63;;;5.12;100.00
44144;BME280;71749;51.920;4.492;2024-01-15T04:44:19;66437.97;;;5.17;100.00
44144;BME280;71749;51.920;4.492;2024-01-15T04:47:04;66428.72;;;5.11;100.00
44144;BME280;71749;51.920;4.492;2024-01-15T04:49:51;66419.84;;;5.03;100.00
44144;BME280;71749;51.920;4.492;2024-01-15T04:52:37;66425.94;;;5.09;100.00
44144;BME280;71749;51.920;4.492;2024-01-15T04:55:22;66405.03;;;4.85;100.00
44144;BME280;71749;51.920;4.492;2024-01-15T04:58:08;66380.25;;;4.65;100.00
44144;BME280;71749;51.920;4.492;2024-01-15T05:00:53;66363.78;;;4.52;100.00
44144;BME280;71749;51.920;4.492;2024-01-15T05:03:39;66372.88;;;4.56;100.00
44144;BME280;71749;51.920;4.492;2024-01-15T05:06:25;66378.03;;;4.63;100.00
44144;BME280;71749;51.920;4.492;2024-01-15T05:09:10;66376.19;;;4.59;100.00
44144;BME280;71749;51.920;4.492;2024-01-15T05:11:56;66381.53;;;4.68;100.00
44144;BME280;71749;51.920;4.492;2024-01-15T05:14:41;66376.00;;;4.63;100.00
44144;BME280;71749;51.920;4.492;2024-01-15T05:17:27;66391.53;;;4.77;100.00
44144;BME280;71749;51.920;4.492;2024-01-15T05:20:13;66413.16;;;4.97;100.00
44144;BME280;71749;51.920;4.492;2024-01-15T05:22:58;66413.16;;;4.97;100.00
44144;BME280;71749;51.920;4.492;2024-01-15T05:25:43;66402.44;;;4.85;100.00
44144;BME280;71749;51.920;4.492;2024-01-15T05:28:29;66399.84;;;4.85;100.00
44144;BME280;71749;51.920;4.492;2024-01-15T05:31:14;66407.63;;;4.92;100.00
44144;BME280;71749;51.920;4.492;2024-01-15T05:34:00;66403.00;;;4.85;100.00
44144;BME280;71749;51.920;4.492;2024-01-15T05:36:45;66373.41;;;4.63;100.00
44144;BME280;71749;51.920;4.492;2024-01-15T05:39:33;66377.13;;;4.64;100.00
44144;BME280;71749;51.920;4.492;2024-01-15T05:42:18;66386.53;;;4.73;100.00
44144;BME280;71749;51.920;4.492;2024-01-15T05:45:04;66378.59;;;4.63;100.00
44144;BME280;71749;51.920;4.492;2024-01-15T05:47:49;66393.03;;;4.76;100.00
44144;BME280;71749;51.920;4.492;2024-01-15T05:50:35;66409.66;;;4.91;100.00
44144;BME280;71749;51.920;4.492;2024-01-15T05:53:20;66405.22;;;4.87;100.00
44144;BME280;71749;51.920;4.492;2024-01-15T05:56:06;66405.22;;;4.87;100.00
44144;BME280;71749;51.920;4.492;2024-01-15T05:58:51;66415.41;;;4.99;100.00
44144;BME280;71749;51.920;4.492;2024-01-15T06:01:36;66427.25;;;5.05;100.00
44144;BME280;71749;51.920;4.492;2024-01-15T06:04:22;66422.06;;;5.05;100.00
44144;BME280;71749;51.920;4.492;2024-01-15T06:07:07;66421.31;;;5.02;100.00
44144;BME280;71749;51.920;4.492;2024-01-15T06:09:53;66431.31;;;5.11;100.00
44144;BME280;71749;51.920;4.492;2024-01-15T06:12:38;66432.97;;;5.13;100.00
44144;BME280;71749;51.920;4.492;2024-01-15T06:15:23;66434.47;;;5.12;100.00
44144;BME280;71749;51.920;4.492;2024-01-15T06:18:09;66433.53;;;5.13;100.00
44144;BME280;71749;51.920;4.492;2024-01-15T06:20:55;66413.53;;;4.95;100.00
44144;BME280;71749;51.920;4.492;2024-01-15T06:23:41;66370.47;;;4.58;100.00
44144;BME280;71749;51.920;4.492;2024-01-15T06:26:26;66344.38;;;4.34;100.00
44144;BME280;71749;51.920;4.492;2024-01-15T06:29:11;66329.78;;;4.19;100.00
44144;BME280;71749;51.920;4.492;2024-01-15T06:31:57;66299.28;;;3.91;100.00
44144;BME280;71749;51.920;4.492;2024-01-15T06:34:42;66299.28;;;3.91;100.00
44144;BME280;71749;51.920;4.492;2024-01-15T06:37:28;66293.53;;;3.83;100.00
44144;BME280;71749;51.920;4.492;2024-01-15T06:40:13;66302.59;;;3.94;100.00
44144;BME280;71749;51.920;4.492;2024-01-15T06:42:59;66320.91;;;4.10;100.00
44144;BME280;71749;51.920;4.492;2024-01-15T06:45:44;66327.00;;;4.16;100.00
44144;BME280;71749;51.920;4.492;2024-01-15T06:48:29;66343.81;;;4.34;100.00
44144;BME280;71749;51.920;4.492;2024-01-15T06:51:15;66353.25;;;4.42;100.00
44144;BME280;71749;51.920;4.492;2024-01-15T06:54:01;66351.03;;;4.40;100.00
44144;BME280;71749;51.920;4.492;2024-01-15T06:56:47;66361.00;;;4.49;100.00
44144;BME280;71749;51.920;4.492;2024-01-15T06:59:34;66363.97;;;4.47;100.00
44144;BME280;71749;51.920;4.492;2024-01-15T07:02:20;66365.28;;;4.51;100.00
44144;BME280;71749;51.920;4.492;2024-01-15T07:05:06;66377.28;;;4.60;100.00
44144;BME280;71749;51.920;4.492;2024-01-15T07:07:52;66385.06;;;4.74;100.00
44144;BME280;71749;51.920;4.492;2024-01-15T07:10:37;66368.41;;;4.59;100.00
44144;BME280;71749;51.920;4.492;2024-01-15T07:13:22;66392.84;;;4.74;100.00
44144;BME280;71749;51.920;4.492;2024-01-15T07:16:08;66401.72;;;4.82;100.00
44144;BME280;71749;51.920;4.492;2024-01-15T07:18:53;66401.72;;;4.82;100.00
44144;BME280;71749;51.920;4.492;2024-01-15T07:21:38;66383.94;;;4.66;100.00
44144;BME280;71749;51.920;4.492;2024-01-15T07:24:25;66398.75;;;4.84;100.00
44144;BME280;71749;51.920;4.492;2024-01-15T07:27:10;66406.34;;;4.88;100.00
44144;BME280;71749;51.920;4.492;2024-01-15T07:29:57;66391.91;;;4.75;100.00
44144;BME280;71749;51.920;4.492;2024-01-15T07:32:46;66382.84;;;4.65;100.00
44144;BME280;71749;51.920;4.492;2024-01-15T07:35:32;66394.31;;;4.80;100.00
44144;BME280;71749;51.920;4.492;2024-01-15T07:38:17;66417.59;;;5.01;100.00
44144;BME280;71749;51.920;4.492;2024-01-15T07:41:02;66420.94;;;5.04;100.00
44144;BME280;71749;51.920;4.492;2024-01-15T07:43:48;66423.19;;;5.06;100.00
44144;BME280;71749;51.920;4.492;2024-01-15T07:46:33;66432.03;;;5.14;100.00
44144;BME280;71749;51.920;4.492;2024-01-15T07:49:18;66441.31;;;5.20;100.00
44144;BME280;71749;51.920;4.492;2024-01-15T07:52:04;66432.03;;;5.14;100.00
44144;BME280;71749;51.920;4.492;2024-01-15T07:54:50;66438.69;;;5.20;100.00
44144;BME280;71749;51.920;4.492;2024-01-15T07:57:36;66441.50;;;5.23;100.00
44144;BME280;71749;51.920;4.492;2024-01-15T08:00:21;66449.84;;;5.23;100.00
44144;BME280;71749;51.920;4.492;2024-01-15T08:03:06;66442.03;;;5.23;100.00
44144;BME280;71749;51.920;4.492;2024-01-15T08:05:52;66437.97;;;5.17;100.00
44144;BME280;71749;51.920;4.492;2024-01-15T08:08:39;66429.84;;;5.12;100.00
44144;BME280;71749;51.920;4.492;2024-01-15T08:11:24;66421.88;;;5.03;100.00
44144;BME280;71749;51.920;4.492;2024-01-15T08:14:10;66423.19;;;5.06;100.00
44144;BME280;71749;51.920;4.492;2024-01-15T08:16:56;66424.81;;;5.08;100.00
44144;BME280;71749;51.920;4.492;2024-01-15T08:19:42;66417.44;;;4.99;100.00
44144;BME280;71749;51.920;4.492;2024-01-15T08:22:28;66420.38;;;5.04;100.00
44144;BME280;71749;51.920;4.492;2024-01-15T08:25:15;66417.44;;;4.99;100.00
44144;BME280;71749;51.920;4.492;2024-01-15T08:28:01;66412.63;;;4.97;100.00
44144;BME280;71749;51.920;4.492;2024-01-15T08:30:46;66423.53;;;5.04;100.00
44144;BME280;71749;51.920;4.492;2024-01-15T08:33:31;66424.09;;;5.05;100.00
44144;BME280;71749;51.920;4.492;2024-01-15T08:36:18;66424.25;;;5.07;100.00
44144;BME280;71749;51.920;4.492;2024-01-15T08:39:03;66435.94;;;5.18;100.00
44144;BME280;71749;51.920;4.492;2024-01-15T08:41:49;66439.81;;;5.21;100.00
44144;BME280;71749;51.920;4.492;2024-01-15T08:44:34;66436.09;;;5.20;100.00
44144;BME280;71749;51.920;4.492;2024-01-15T08:47:20;66433.53;;;5.13;100.00
44144;BME280;71749;51.920;4.492;2024-01-15T08:50:07;66438.69;;;5.20;100.00
44144;BME280;71749;51.920;4.492;2024-01-15T08:52:55;66451.88;;;5.30;100.00
44144;BME280;71749;51.920;4.492;2024-01-15T08:55:40;66458.88;;;5.41;100.00
44144;BME280;71749;51.920;4.492;2024-01-15T08:58:27;66497.00;;;5.73;100.00
44144;BME280;71749;51.920;4.492;2024-01-15T09:01:13;66518.13;;;5.93;100.00
44144;BME280;71749;51.920;4.492;2024-01-15T09:03:58;66558.34;;;6.25;100.00
44144;BME280;71749;51.920;4.492;2024-01-15T09:06:45;66560.19;;;6.29;96.57
44144;BME280;71749;51.920;4.492;2024-01-15T09:09:31;66555.19;;;6.24;96.63
44144;BME280;71749;51.920;4.492;2024-01-15T09:12:17;66547.03;;;6.19;95.35
44144;BME280;71749;51.920;4.492;2024-01-15T09:15:03;66557.03;;;6.28;95.81
44144;BME280;71749;51.920;4.492;2024-01-15T09:17:50;66536.47;;;6.09;95.87
44144;BME280;71749;51.920;4.492;2024-01-15T09:20:35;66531.84;;;6.03;96.26
44144;BME280;71749;51.920;4.492;2024-01-15T09:23:20;66489.97;;;5.69;97.77
44144;BME280;71749;51.920;4.492;2024-01-15T09:26:09;66485.72;;;5.61;97.61
44144;BME280;71749;51.920;4.492;2024-01-15T09:28:54;66465.72;;;5.43;98.88
44144;BME280;71749;51.920;4.492;2024-01-15T09:31:40;66446.09;;;5.29;99.82
44144;BME280;71749;51.920;4.492;2024-01-15T09:34:26;66454.25;;;5.34;100.00
44144;BME280;71749;51.920;4.492;2024-01-15T09:37:14;66495.34;;;5.72;100.00
44144;BME280;71749;51.920;4.492;2024-01-15T09:40:20;66496.84;;;5.71;100.00
44144;BME280;71749;51.920;4.492;2024-01-15T09:43:06;66512.75;;;5.90;100.00
44144;BME280;71749;51.920;4.492;2024-01-15T09:45:53;66528.31;;;5.97;100.00
44144;BME280;71749;51.920;4.492;2024-01-15T09:48:39;66519.25;;;5.94;100.00
44144;BME280;71749;51.920;4.492;2024-01-15T09:51:24;66536.84;;;6.07;99.97
44144;BME280;71749;51.920;4.492;2024-01-15T09:54:10;66546.28;;;6.16;99.86
44144;BME280;71749;51.920;4.492;2024-01-15T09:56:55;66565.72;;;6.34;99.13
44144;BME280;71749;51.920;4.492;2024-01-15T09:59:43;66576.47;;;6.46;99.37
44144;BME280;71749;51.920;4.492;2024-01-15T10:02:28;66584.63;;;6.51;98.74
44144;BME280;71749;51.920;4.492;2024-01-15T10:05:13;66586.84;;;6.53;98.86
44144;BME280;71749;51.920;4.492;2024-01-15T10:08:00;66589.09;;;6.55;98.43
44144;BME280;71749;51.920;4.492;2024-01-15T10:10:47;66560.38;;;6.31;98.13
44144;BME280;71749;51.920;4.492;2024-01-15T10:13:33;66530.91;;;6.04;98.46
44144;BME280;71749;51.920;4.492;2024-01-15T10:16:19;66506.44;;;5.82;98.61
44144;BME280;71749;51.920;4.492;2024-01-15T10:19:04;66482.56;;;5.60;100.00
44144;BME280;71749;51.920;4.492;2024-01-15T10:21:50;66460.91;;;5.41;100.00
44144;BME280;71749;51.920;4.492;2024-01-15T10:24:36;66457.75;;;5.40;100.00
44144;BME280;71749;51.920;4.492;2024-01-15T10:27:22;66475.34;;;5.54;100.00
44144;BME280;71749;51.920;4.492;2024-01-15T10:30:09;66473.84;;;5.55;100.00
44144;BME280;71749;51.920;4.492;2024-01-15T10:33:02;66485.53;;;5.65;100.00
44144;BME280;71749;51.920;4.492;2024-01-15T10:35:48;66477.00;;;5.55;100.00
44144;BME280;71749;51.920;4.492;2024-01-15T10:38:33;66502.75;;;5.74;100.00
44144;BME280;71749;51.920;4.492;2024-01-15T10:41:18;66507.94;;;5.81;100.00
44144;BME280;71749;51.920;4.492;2024-01-15T10:44:04;66498.31;;;5.70;100.00
44144;BME280;71749;51.920;4.492;2024-01-15T10:46:49;66470.53;;;5.52;100.00
44144;BME280;71749;51.920;4.492;2024-01-15T10:49:36;66486.09;;;5.66;100.00
44144;BME280;71749;51.920;4.492;2024-01-15T10:52:22;66496.44;;;5.73;100.00
44144;BME280;71749;51.920;4.492;2024-01-15T10:55:08;66477.41;;;5.53;99.84
44144;BME280;71749;51.920;4.492;2024-01-15T10:58:02;66463.50;;;5.41;100.00
44144;BME280;71749;51.920;4.492;2024-01-15T11:00:48;66461.13;;;5.36;99.90
44144;BME280;71749;51.920;4.492;2024-01-15T11:03:34;66465.34;;;5.45;100.00
44144;BME280;71749;51.920;4.492;2024-01-15T11:06:21;66477.00;;;5.55;100.00
44144;BME280;71749;51.920;4.492;2024-01-15T11:09:09;66492.38;;;5.67;97.92
44144;BME280;71749;51.920;4.492;2024-01-15T11:12:09;66474.63;;;5.51;94.78
44144;BME280;71749;51.920;4.492;2024-01-15T11:15:02;66475.72;;;5.52;96.24
44144;BME280;71749;51.920;4.492;2024-01-15T11:18:01;66486.28;;;5.61;96.25
44144;BME280;71749;51.920;4.492;2024-01-15T11:23:53;66505.91;;;5.82;95.54
44144;BME280;71749;51.920;4.492;2024-01-15T11:26:45;66511.81;;;5.85;95.05
44144;BME280;71749;51.920;4.492;2024-01-15T11:29:33;66513.88;;;5.91;95.51
44144;BME280;71749;51.920;4.492;2024-01-15T11:32:33;66527.97;;;5.99;95.40
44144;BME280;71749;51.920;4.492;2024-01-15T11:35:19;66533.88;;;6.09;96.47
44144;BME280;71749;51.920;4.492;2024-01-15T11:38:04;66552.59;;;6.24;96.60
44144;BME280;71749;51.920;4.492;2024-01-15T11:40:51;66573.16;;;6.43;96.47
44144;BME280;71749;51.920;4.492;2024-01-15T11:43:37;66570.91;;;6.41;95.32
44144;BME280;71749;51.920;4.492;2024-01-15T11:46:24;66556.47;;;6.28;93.63
44144;BME280;71749;51.920;4.492;2024-01-15T11:49:31;66548.34;;;6.15;92.17
44144;BME280;71749;51.920;4.492;2024-01-15T11:52:23;66511.81;;;5.85;92.75
44144;BME280;71749;51.920;4.492;2024-01-15T11:55:19;66455.75;;;5.33;93.79
44144;BME280;71749;51.920;4.492;2024-01-15T11:58:08;66428.16;;;5.11;96.41
44144;BME280;71749;51.920;4.492;2024-01-15T12:00:55;66441.31;;;5.20;97.36
44144;BME280;71749;51.920;4.492;2024-01-15T12:03:40;66434.81;;;5.17;98.94
44144;BME280;71749;51.920;4.492;2024-01-15T12:06:26;66430.19;;;5.10;99.57
44144;BME280;71749;51.920;4.492;2024-01-15T12:09:11;66426.88;;;5.07;100.00
44144;BME280;71749;51.920;4.492;2024-01-15T12:12:03;66425.38;;;5.08;100.00
44144;BME280;71749;51.920;4.492;2024-01-15T12:14:52;66437.78;;;5.15;100.00
44144;BME280;71749;51.920;4.492;2024-01-15T12:17:38;66446.47;;;5.27;100.00
44144;BME280;71749;51.920;4.492;2024-01-15T12:20:27;66454.81;;;5.35;100.00
44144;BME280;71749;51.920;4.492;2024-01-15T12:23:12;66454.06;;;5.32;99.51
44144;BME280;71749;51.920;4.492;2024-01-15T12:26:02;66446.47;;;5.27;98.54
44144;BME280;71749;51.920;4.492;2024-01-15T12:28:50;66451.47;;;5.32;98.52
44144;BME280;71749;51.920;4.492;2024-01-15T12:31:41;66466.13;;;5.41;99.16
44144;BME280;71749;51.920;4.492;2024-01-15T12:34:29;66470.34;;;5.49;97.80
44144;BME280;71749;51.920;4.492;2024-01-15T12:37:19;66456.47;;;5.37;97.50
44144;BME280;71749;51.920;4.492;2024-01-15T12:40:06;66469.22;;;5.48;97.64
44144;BME280;71749;51.920;4.492;2024-01-15T12:42:52;66481.47;;;5.59;97.61
44144;BME280;71749;51.920;4.492;2024-01-15T12:45:37;66482.03;;;5.60;96.35
44144;BME280;71749;51.920;4.492;2024-01-15T12:48:23;66493.88;;;5.66;97.07
44144;BME280;71749;51.920;4.492;2024-01-15T12:51:08;66494.59;;;5.69;96.22
44144;BME280;71749;51.920;4.492;2024-01-15T12:53:54;66499.59;;;5.73;95.54
44144;BME280;71749;51.920;4.492;2024-01-15T12:56:39;66524.25;;;5.98;95.51
44144;BME280;71749;51.920;4.492;2024-01-15T12:59:24;66527.03;;;6.01;94.32
44144;BME280;71749;51.920;4.492;2024-01-15T13:02:13;66545.91;;;6.18;92.74
44144;BME280;71749;51.920;4.492;2024-01-15T13:04:59;66539.06;;;6.09;91.86
44144;BME280;71749;51.920;4.492;2024-01-15T13:07:45;66534.25;;;6.07;87.13
44144;BME280;71749;51.920;4.492;2024-01-15T13:10:31;66524.25;;;5.98;87.69
44144;BME280;71749;51.920;4.492;2024-01-15T13:13:17;66516.84;;;5.89;86.54
44144;BME280;71749;51.920;4.492;2024-01-15T13:16:02;66532.03;;;6.05;87.21
44144;BME280;71749;51.920;4.492;2024-01-15T13:18:48;66562.41;;;6.31;88.45
44144;BME280;71749;51.920;4.492;2024-01-15T13:21:34;66557.94;;;6.27;87.67
44144;BME280;71749;51.920;4.492;2024-01-15T13:24:21;66558.31;;;6.32;85.68
44144;BME280;71749;51.920;4.492;2024-01-15T13:27:07;66538.31;;;6.13;85.16
44144;BME280;71749;51.920;4.492;2024-01-15T13:29:52;66447.59;;;5.28;89.88
44144;BME280;71749;51.920;4.492;2024-01-15T13:32:38;66427.06;;;5.10;93.75
44144;BME280;71749;51.920;4.492;2024-01-15T13:35:23;66410.38;;;4.94;96.67
44144;BME280;71749;51.920;4.492;2024-01-15T13:38:08;66410.22;;;4.92;97.55
44144;BME280;71749;51.920;4.492;2024-01-15T13:40:54;66399.28;;;4.84;98.27
44144;BME280;71749;51.920;4.492;2024-01-15T13:43:40;66400.63;;;4.81;97.83
44144;BME280;71749;51.920;4.492;2024-01-15T13:46:25;66383.22;;;4.70;99.61
44144;BME280;71749;51.920;4.492;2024-01-15T13:49:14;66393.19;;;4.79;100.00
44144;BME280;71749;51.920;4.492;2024-01-15T13:52:00;66397.63;;;4.83;100.00
44144;BME280;71749;51.920;4.492;2024-01-15T13:54:45;66415.97;;;5.00;100.00
44144;BME280;71749;51.920;4.492;2024-01-15T13:57:35;66419.84;;;5.03;100.00
44144;BME280;71749;51.920;4.492;2024-01-15T14:00:20;66434.81;;;5.17;100.00
44144;BME280;71749;51.920;4.492;2024-01-15T14:03:05;66444.81;;;5.26;100.00
44144;BME280;71749;51.920;4.492;2024-01-15T14:05:51;66467.59;;;5.47;100.00
44144;BME280;71749;51.920;4.492;2024-01-15T14:08:37;66474.97;;;5.49;100.00
44144;BME280;71749;51.920;4.492;2024-01-15T14:11:22;66473.91;;;5.48;100.00
44144;BME280;71749;51.920;4.492;2024-01-15T14:14:08;66479.78;;;5.58;100.00
44144;BME280;71749;51.920;4.492;2024-01-15T14:16:54;66475.72;;;5.52;100.00
44144;BME280;71749;51.920;4.492;2024-01-15T14:19:39;66470.34;;;5.49;100.00
44144;BME280;71749;51.920;4.492;2024-01-15T14:22:25;66464.97;;;5.47;100.00
44144;BME280;71749;51.920;4.492;2024-01-15T14:25:10;66446.47;;;5.27;100.00
44144;BME280;71749;51.920;4.492;2024-01-15T14:27:55;66459.81;;;5.40;100.00
44144;BME280;71749;51.920;4.492;2024-01-15T14:30:40;66449.25;;;5.30;96.45
44144;BME280;71749;51.920;4.492;2024-01-15T14:33:26;66431.31;;;5.11;95.40
44144;BME280;71749;51.920;4.492;2024-01-15T14:36:11;66429.84;;;5.12;91.84
44144;BME280;71749;51.920;4.492;2024-01-15T14:38:57;66431.66;;;5.16;89.89
44144;BME280;71749;51.920;4.492;2024-01-15T14:41:42;66427.41;;;5.08;88.67
44144;BME280;71749;51.920;4.492;2024-01-15T14:44:27;66426.50;;;5.09;90.19
44144;BME280;71749;51.920;4.492;2024-01-15T14:47:15;66437.41;;;5.17;91.02
44144;BME280;71749;51.920;4.492;2024-01-15T14:50:01;66440.56;;;5.17;89.52